createdAt,value
2023-05-23T00:00:53.784Z,5.80
2023-05-23T00:03:56.699Z,8.32
2023-05-23T00:07:00.619Z,5.90
2023-05-23T00:10:03.925Z,7.28
2023-05-23T00:13:09.557Z,6.77
2023-05-23T00:16:12.140Z,7.65
2023-05-23T00:19:17.622Z,5.40
2023-05-23T00:22:20.294Z,6.72
2023-05-23T00:25:23.075Z,8.52
2023-05-23T00:28:26.257Z,6.60
2023-05-23T00:31:28.897Z,7.75
2023-05-23T00:34:31.681Z,7.03
2023-05-23T00:37:37.332Z,5.82
2023-05-23T00:40:40.174Z,6.32
2023-05-23T00:43:42.802Z,6.30
2023-05-23T00:46:50.088Z,6.60
2023-05-23T00:49:52.805Z,6.38
2023-05-23T00:52:56.846Z,6.38
2023-05-23T00:55:59.596Z,5.90
2023-05-23T00:59:02.453Z,6.17
2023-05-23T01:02:05.768Z,6.47
2023-05-23T01:05:09.346Z,5.40
2023-05-23T01:08:12.121Z,5.70
2023-05-23T01:11:30.468Z,6.85
2023-05-23T01:14:47.437Z,6.00
2023-05-23T01:18:17.840Z,8.45
2023-05-23T01:21:23.224Z,7.03
2023-05-23T01:24:36.766Z,5.60
2023-05-23T01:27:53.041Z,5.78
2023-05-23T01:30:58.594Z,8.60
2023-05-23T01:34:01.668Z,6.53
2023-05-23T01:37:09.625Z,8.57
2023-05-23T01:40:12.375Z,7.10
2023-05-23T01:43:15.530Z,6.85
2023-05-23T01:46:18.878Z,5.70
2023-05-23T01:49:23.333Z,7.55
2023-05-23T01:52:28.828Z,5.43
2023-05-23T01:55:31.693Z,6.00
2023-05-23T01:58:34.649Z,7.75
2023-05-23T02:01:38.905Z,8.13
2023-05-23T02:04:41.613Z,6.05
2023-05-23T02:07:44.238Z,6.40
2023-05-23T02:10:47.291Z,6.65
2023-05-23T02:13:50.364Z,6.90
2023-05-23T02:16:53.067Z,6.33
2023-05-23T02:19:56.935Z,6.07
2023-05-23T02:22:59.589Z,7.68
2023-05-23T02:26:02.143Z,6.25
2023-05-23T02:29:04.792Z,5.70
2023-05-23T02:32:08.747Z,6.20
2023-05-23T02:35:12.209Z,5.97
2023-05-23T02:38:14.947Z,7.82
2023-05-23T02:41:17.718Z,6.75
2023-05-23T02:44:20.485Z,6.90
2023-05-23T02:47:23.272Z,6.60
2023-05-23T02:50:26.297Z,6.35
2023-05-23T02:53:28.874Z,5.43
2023-05-23T02:56:31.517Z,6.65
2023-05-23T02:59:34.309Z,6.75
2023-05-23T03:02:37.051Z,6.20
2023-05-23T03:05:39.841Z,7.40
2023-05-23T03:08:43.235Z,6.65
2023-05-23T03:11:46.613Z,6.57
2023-05-23T03:14:49.273Z,5.68
2023-05-23T03:17:51.929Z,5.87
2023-05-23T03:20:55.009Z,9.18
2023-05-23T03:23:59.381Z,6.22
2023-05-23T03:27:02.262Z,5.50
2023-05-23T03:30:05.443Z,5.00
2023-05-23T03:33:09.317Z,6.10
2023-05-23T03:36:12.149Z,5.90
2023-05-23T03:39:14.764Z,5.22
2023-05-23T03:42:18.593Z,5.47
2023-05-23T03:45:21.758Z,6.72
2023-05-23T03:48:24.493Z,7.00
2023-05-23T03:51:28.397Z,6.05
2023-05-23T03:54:31.290Z,7.25
2023-05-23T03:57:34.014Z,5.13
2023-05-23T04:00:36.767Z,5.57
2023-05-23T04:03:42.557Z,6.73
2023-05-23T04:06:45.642Z,6.28
2023-05-23T04:09:48.366Z,5.72
2023-05-23T04:12:51.778Z,5.97
2023-05-23T04:15:58.107Z,5.88
2023-05-23T04:19:05.479Z,5.60
2023-05-23T04:22:08.506Z,5.53
2023-05-23T04:25:12.679Z,5.80
2023-05-23T04:28:22.041Z,6.10
2023-05-23T04:31:24.809Z,5.93
2023-05-23T04:34:28.058Z,5.20
2023-05-23T04:37:33.108Z,6.38
2023-05-23T04:40:36.618Z,5.55
2023-05-23T04:43:58.558Z,5.30
2023-05-23T04:47:04.851Z,6.53
2023-05-23T04:50:26.283Z,6.37
2023-05-23T04:53:28.919Z,5.20
2023-05-23T04:56:33.309Z,5.72
2023-05-23T04:59:36.365Z,5.53
2023-05-23T05:02:39.647Z,5.55
2023-05-23T05:05:42.522Z,5.27
2023-05-23T05:08:45.430Z,5.80
2023-05-23T05:11:48.824Z,5.90
2023-05-23T05:14:51.386Z,7.32
2023-05-23T05:17:54.480Z,6.40
2023-05-23T05:20:58.698Z,5.30
2023-05-23T05:24:01.843Z,5.70
2023-05-23T05:27:04.720Z,7.47
2023-05-23T05:30:09.103Z,6.25
2023-05-23T05:33:36.546Z,6.10
2023-05-23T05:36:48.453Z,7.67
2023-05-23T05:39:54.652Z,6.25
2023-05-23T05:42:57.611Z,7.43
2023-05-23T05:46:01.829Z,9.23
2023-05-23T05:49:05.190Z,8.25
2023-05-23T05:52:08.761Z,10.00
2023-05-23T05:55:13.058Z,8.18
2023-05-23T05:58:20.108Z,6.45
2023-05-23T06:01:36.021Z,10.18
2023-05-23T06:04:38.938Z,9.88
2023-05-23T06:07:42.039Z,10.03
2023-05-23T06:10:44.882Z,9.32
2023-05-23T06:13:48.075Z,10.25
2023-05-23T06:17:01.184Z,11.23
2023-05-23T06:20:05.520Z,7.47
2023-05-23T06:23:09.497Z,10.07
2023-05-23T06:26:12.794Z,6.18
2023-05-23T06:29:16.942Z,7.93
2023-05-23T06:32:19.583Z,7.35
2023-05-23T06:35:23.517Z,8.35
2023-05-23T06:38:29.763Z,5.97
2023-05-23T06:41:32.421Z,8.07
2023-05-23T06:44:35.211Z,8.55
2023-05-23T06:47:39.078Z,7.60
2023-05-23T06:50:42.333Z,9.32
2023-05-23T06:53:47.012Z,7.37
2023-05-23T06:56:50.415Z,7.80
2023-05-23T06:59:53.342Z,11.05
2023-05-23T07:03:13.004Z,13.98
2023-05-23T07:06:16.639Z,7.43
2023-05-23T07:09:20.586Z,7.67
2023-05-23T07:12:25.902Z,7.22
2023-05-23T07:15:30.991Z,8.65
2023-05-23T07:18:49.000Z,9.05
2023-05-23T07:22:03.262Z,8.80
2023-05-23T07:25:13.404Z,6.77
2023-05-23T07:28:27.591Z,5.53
2023-05-23T07:31:31.598Z,6.80
2023-05-23T07:34:35.892Z,8.32
2023-05-23T07:37:38.936Z,6.30
2023-05-23T07:41:02.630Z,7.00
2023-05-23T07:44:11.517Z,10.20
2023-05-23T07:50:34.110Z,9.18
2023-05-23T07:53:42.076Z,7.80
2023-05-23T07:57:03.708Z,9.20
2023-05-23T08:00:07.802Z,9.85
2023-05-23T08:03:19.369Z,9.50
2023-05-23T08:06:34.938Z,8.23
2023-05-23T08:09:42.355Z,9.55
2023-05-23T08:12:48.837Z,9.50
2023-05-23T08:15:55.072Z,9.73
2023-05-23T08:19:00.970Z,11.30
2023-05-23T08:22:04.926Z,9.07
2023-05-23T08:25:08.505Z,7.22
2023-05-23T08:28:13.591Z,10.20
2023-05-23T08:31:27.680Z,8.35
2023-05-23T08:34:38.977Z,10.10
2023-05-23T08:37:43.588Z,7.18
2023-05-23T08:40:56.570Z,10.18
2023-05-23T08:44:01.910Z,8.87
2023-05-23T08:47:09.554Z,9.48
2023-05-23T08:50:23.069Z,11.88
2023-05-23T08:53:27.679Z,9.38
2023-05-23T08:56:38.921Z,8.52
2023-05-23T08:59:43.937Z,8.87
2023-05-23T09:02:47.758Z,15.18
2023-05-23T09:06:11.654Z,11.10
2023-05-23T09:09:15.403Z,19.77
2023-05-23T09:12:18.608Z,12.27
2023-05-23T09:15:24.157Z,11.30
2023-05-23T09:18:27.529Z,13.00
2023-05-23T09:21:32.206Z,13.10
2023-05-23T09:24:47.749Z,9.98
2023-05-23T09:27:53.623Z,12.15
2023-05-23T09:31:04.013Z,9.57
2023-05-23T09:34:07.100Z,8.30
2023-05-23T09:37:13.634Z,10.05
2023-05-23T09:40:16.782Z,8.05
2023-05-23T09:43:33.765Z,8.38
2023-05-23T09:46:41.985Z,8.57
2023-05-23T09:50:21.428Z,11.50
2023-05-23T09:53:44.603Z,9.32
2023-05-23T09:56:47.528Z,9.63
2023-05-23T10:00:14.236Z,9.15
2023-05-23T10:03:17.894Z,10.37
2023-05-23T10:06:29.350Z,8.40
2023-05-23T10:09:39.489Z,8.75
2023-05-23T10:12:54.819Z,10.38
2023-05-23T10:16:28.259Z,10.63
2023-05-23T10:19:43.860Z,9.07
2023-05-23T10:22:46.736Z,12.52
2023-05-23T10:25:49.776Z,8.93
2023-05-23T10:28:53.256Z,9.73
2023-05-23T10:31:56.828Z,12.40
2023-05-23T10:35:34.466Z,12.30
2023-05-23T10:38:51.663Z,8.27
2023-05-23T10:42:08.482Z,8.25
2023-05-23T10:45:21.710Z,10.15
2023-05-23T10:48:35.815Z,8.63
2023-05-23T10:51:40.927Z,9.47
2023-05-23T10:54:52.559Z,9.60
2023-05-23T10:58:17.352Z,9.57
2023-05-23T11:01:23.884Z,10.77
2023-05-23T11:04:28.386Z,8.80
2023-05-23T11:07:33.030Z,8.53
2023-05-23T11:11:01.573Z,11.18
2023-05-23T11:14:04.498Z,10.10
2023-05-23T11:17:13.588Z,11.27
2023-05-23T11:20:18.737Z,9.90
2023-05-23T11:23:22.341Z,12.00
2023-05-23T11:26:32.479Z,10.32
2023-05-23T11:29:35.637Z,10.82
2023-05-23T11:32:38.496Z,10.80
2023-05-23T11:35:45.945Z,11.90
2023-05-23T11:38:53.346Z,10.40
2023-05-23T11:42:05.028Z,9.48
2023-05-23T11:45:09.590Z,13.27
2023-05-23T11:48:13.870Z,11.40
2023-05-23T11:51:17.671Z,14.35
2023-05-23T11:54:24.496Z,10.10
2023-05-23T11:57:28.118Z,11.85
2023-05-23T12:00:31.991Z,9.90
2023-05-23T12:03:36.222Z,14.00
2023-05-23T12:06:41.686Z,14.75
2023-05-23T12:09:44.817Z,9.13
2023-05-23T12:12:48.487Z,10.25
2023-05-23T12:15:54.883Z,9.35
2023-05-23T12:18:59.100Z,10.40
2023-05-23T12:22:07.718Z,9.02
2023-05-23T12:25:13.735Z,9.07
2023-05-23T12:28:16.626Z,10.52
2023-05-23T12:31:22.348Z,9.23
2023-05-23T12:34:25.294Z,10.38
2023-05-23T12:37:27.997Z,10.40
2023-05-23T12:40:30.929Z,10.93
2023-05-23T12:43:33.650Z,12.40
2023-05-23T12:46:37.230Z,9.98
2023-05-23T12:49:41.336Z,10.05
2023-05-23T12:52:48.119Z,11.27
2023-05-23T12:55:50.701Z,9.60
2023-05-23T12:58:54.419Z,11.18
2023-05-23T13:01:57.006Z,9.65
2023-05-23T13:04:59.690Z,7.15
2023-05-23T13:08:02.679Z,10.85
2023-05-23T13:11:05.760Z,10.73
2023-05-23T13:14:08.567Z,14.95
2023-05-23T13:17:11.278Z,9.52
2023-05-23T13:20:14.794Z,10.93
2023-05-23T13:23:17.465Z,9.82
2023-05-23T13:26:20.130Z,10.40
2023-05-23T13:29:22.840Z,9.05
2023-05-23T13:32:26.383Z,9.10
2023-05-23T13:35:29.029Z,8.82
2023-05-23T13:38:38.879Z,9.40
2023-05-23T13:41:42.345Z,10.87
2023-05-23T13:44:45.029Z,11.63
2023-05-23T13:47:47.850Z,11.50
2023-05-23T13:50:50.588Z,12.00
2023-05-23T13:53:53.309Z,10.13
2023-05-23T13:56:55.917Z,13.70
2023-05-23T13:59:58.570Z,15.20
2023-05-23T14:03:01.404Z,7.85
2023-05-23T14:06:05.438Z,8.00
2023-05-23T14:09:09.130Z,9.05
2023-05-23T14:12:11.778Z,8.80
2023-05-23T14:15:14.584Z,14.15
2023-05-23T14:18:17.314Z,10.00
2023-05-23T14:21:19.977Z,10.88
2023-05-23T14:24:22.610Z,8.68
2023-05-23T14:27:25.428Z,13.63
2023-05-23T14:30:28.676Z,10.55
2023-05-23T14:33:31.623Z,8.00
2023-05-23T14:36:37.045Z,11.65
2023-05-23T14:39:41.536Z,9.90
2023-05-23T14:42:44.462Z,8.40
2023-05-23T14:45:47.337Z,9.43
2023-05-23T14:48:49.981Z,7.47
2023-05-23T14:51:53.749Z,7.28
2023-05-23T14:54:56.396Z,6.22
2023-05-23T14:57:59.140Z,7.47
2023-05-23T15:01:01.913Z,8.20
2023-05-23T15:04:05.876Z,9.25
2023-05-23T15:07:09.548Z,10.50
2023-05-23T15:10:12.157Z,11.25
2023-05-23T15:13:14.755Z,15.07
2023-05-23T15:16:18.204Z,12.23
2023-05-23T15:19:20.821Z,12.70
2023-05-23T15:25:47.186Z,16.25
2023-05-23T15:28:51.741Z,12.10
2023-05-23T15:31:54.416Z,16.45
2023-05-23T15:34:57.009Z,18.92
2023-05-23T15:37:59.672Z,18.30
2023-05-23T15:41:03.368Z,15.43
2023-05-23T15:44:06.303Z,15.27
2023-05-23T15:47:09.263Z,13.32
2023-05-23T15:50:14.250Z,16.25
2023-05-23T15:53:17.086Z,17.77
2023-05-23T15:56:20.026Z,14.50
2023-05-23T15:59:22.707Z,12.23
2023-05-23T16:02:25.725Z,13.85
2023-05-23T16:05:28.590Z,12.40
2023-05-23T16:08:31.220Z,13.07
2023-05-23T16:11:33.754Z,12.90
2023-05-23T16:14:36.358Z,11.53
2023-05-23T16:17:39.115Z,10.23
2023-05-23T16:20:41.649Z,12.48
2023-05-23T16:23:44.117Z,13.40
2023-05-23T16:26:46.806Z,14.82
2023-05-23T16:29:49.339Z,14.23
2023-05-23T16:32:51.996Z,11.95
2023-05-23T16:35:54.596Z,12.38
2023-05-23T16:38:57.271Z,12.23
2023-05-23T16:42:00.562Z,19.00
2023-05-23T16:45:04.017Z,10.20
2023-05-23T16:48:06.696Z,11.95
2023-05-23T16:51:09.436Z,10.23
2023-05-23T16:54:12.020Z,9.35
2023-05-23T16:57:14.570Z,11.18
2023-05-23T17:00:17.474Z,9.30
2023-05-23T17:03:21.254Z,12.25
2023-05-23T17:06:24.097Z,12.48
2023-05-23T17:09:26.698Z,13.38
2023-05-23T17:12:29.270Z,9.70
2023-05-23T17:15:32.046Z,8.27
2023-05-23T17:18:34.676Z,8.88
2023-05-23T17:21:37.793Z,10.25
2023-05-23T17:24:40.693Z,8.65
2023-05-23T17:27:43.437Z,15.90
2023-05-23T17:30:46.212Z,12.80
2023-05-23T17:33:48.848Z,7.75
2023-05-23T17:36:52.841Z,10.73
2023-05-23T17:39:57.665Z,10.90
2023-05-23T17:43:00.955Z,12.10
2023-05-23T17:46:03.949Z,7.87
2023-05-23T17:49:07.338Z,11.70
2023-05-23T17:52:10.269Z,9.65
2023-05-23T17:55:12.880Z,11.00
2023-05-23T17:58:15.450Z,11.30
2023-05-23T18:01:18.294Z,9.97
2023-05-23T18:04:22.262Z,12.00
2023-05-23T18:07:24.937Z,9.02
2023-05-23T18:10:27.698Z,11.05
2023-05-23T18:13:30.452Z,9.07
2023-05-23T18:16:33.160Z,7.83
2023-05-23T18:19:36.519Z,9.43
2023-05-23T18:22:39.389Z,6.68
2023-05-23T18:25:42.049Z,9.77
2023-05-23T18:28:45.070Z,9.88
2023-05-23T18:31:47.864Z,10.73
2023-05-23T18:34:51.698Z,8.90
2023-05-23T18:37:54.877Z,6.30
2023-05-23T18:40:58.280Z,9.43
2023-05-23T18:44:02.253Z,9.55
2023-05-23T18:47:06.672Z,10.23
2023-05-23T18:50:10.878Z,7.40
2023-05-23T18:53:14.869Z,9.80
2023-05-23T18:56:18.329Z,9.02
2023-05-23T18:59:22.063Z,6.70
2023-05-23T19:02:27.004Z,8.87
2023-05-23T19:05:31.504Z,6.45
2023-05-23T19:08:35.175Z,9.23
2023-05-23T19:11:39.053Z,10.27
2023-05-23T19:14:41.988Z,10.63
2023-05-23T19:17:45.305Z,8.40
2023-05-23T19:20:48.291Z,7.50
2023-05-23T19:23:52.371Z,8.05
2023-05-23T19:26:56.452Z,9.10
2023-05-23T19:30:01.007Z,7.57
2023-05-23T19:33:05.451Z,10.33
2023-05-23T19:36:12.284Z,7.88
2023-05-23T19:39:16.130Z,9.02
2023-05-23T19:42:19.812Z,8.02
2023-05-23T19:45:25.890Z,8.13
2023-05-23T19:48:29.514Z,6.73
2023-05-23T19:51:34.120Z,9.35
2023-05-23T19:54:38.015Z,6.60
2023-05-23T19:57:41.485Z,8.02
2023-05-23T20:00:44.554Z,7.95
2023-05-23T20:03:47.938Z,6.43
2023-05-23T20:06:52.389Z,7.80
2023-05-23T20:09:56.088Z,9.25
2023-05-23T20:12:58.942Z,6.78
2023-05-23T20:16:02.575Z,5.72
2023-05-23T20:19:07.360Z,7.33
2023-05-23T20:22:09.962Z,6.03
2023-05-23T20:25:12.501Z,8.40
2023-05-23T20:28:15.108Z,7.68
2023-05-23T20:31:19.116Z,8.02
2023-05-23T20:34:21.696Z,8.03
2023-05-23T20:37:24.689Z,8.38
2023-05-23T20:40:29.902Z,8.55
2023-05-23T20:43:37.254Z,7.72
2023-05-23T20:46:43.881Z,7.85
2023-05-23T20:49:47.876Z,6.17
2023-05-23T20:52:51.138Z,6.82
2023-05-23T20:55:53.815Z,8.85
2023-05-23T20:59:00.391Z,7.50
2023-05-23T21:02:03.103Z,6.82
2023-05-23T21:05:07.504Z,6.17
2023-05-23T21:08:10.280Z,6.53
2023-05-23T21:11:12.930Z,8.13
2023-05-23T21:14:15.620Z,7.40
2023-05-23T21:17:20.148Z,6.70
2023-05-23T21:20:22.891Z,7.63
2023-05-23T21:23:25.816Z,6.97
2023-05-23T21:26:29.906Z,7.03
2023-05-23T21:29:32.510Z,6.45
2023-05-23T21:32:35.920Z,6.57
2023-05-23T21:35:38.722Z,6.53
2023-05-23T21:38:41.508Z,7.28
2023-05-23T21:41:44.053Z,7.50
2023-05-23T21:44:46.813Z,8.18
2023-05-23T21:47:49.479Z,6.75
2023-05-23T21:50:52.094Z,6.27
2023-05-23T21:53:54.676Z,7.53
2023-05-23T21:56:58.817Z,7.45
2023-05-23T22:00:01.411Z,5.60
2023-05-23T22:03:04.120Z,5.97
2023-05-23T22:06:07.795Z,8.03
2023-05-23T22:09:13.300Z,6.82
2023-05-23T22:12:15.787Z,8.07
2023-05-23T22:15:18.683Z,6.38
2023-05-23T22:18:27.633Z,6.05
2023-05-23T22:21:31.818Z,8.00
2023-05-23T22:24:34.747Z,7.90
2023-05-23T22:27:39.408Z,5.80
2023-05-23T22:30:42.254Z,5.75
2023-05-23T22:33:45.310Z,7.03
2023-05-23T22:36:51.129Z,7.40
2023-05-23T22:39:54.504Z,7.10
2023-05-23T22:43:03.872Z,6.72
2023-05-23T22:46:07.065Z,6.38
2023-05-23T22:49:10.593Z,6.35
2023-05-23T22:52:13.598Z,5.67
2023-05-23T22:55:17.389Z,7.80
2023-05-23T22:58:20.061Z,6.05
2023-05-23T23:01:22.728Z,6.63
2023-05-23T23:04:25.556Z,5.25
2023-05-23T23:07:29.076Z,5.70
2023-05-23T23:10:31.621Z,6.28
2023-05-23T23:13:34.220Z,7.07
2023-05-23T23:16:38.099Z,6.30
2023-05-23T23:19:41.617Z,6.28
2023-05-23T23:22:47.136Z,5.83
2023-05-23T23:25:50.884Z,6.72
2023-05-23T23:28:53.449Z,6.00
2023-05-23T23:31:58.946Z,6.63
2023-05-23T23:35:04.464Z,5.00
2023-05-23T23:38:07.050Z,8.53
2023-05-23T23:41:09.694Z,7.35
2023-05-23T23:44:12.876Z,5.70
2023-05-23T23:47:15.879Z,7.45
2023-05-23T23:50:18.490Z,7.00
2023-05-23T23:53:23.795Z,5.93
2023-05-23T23:56:26.691Z,7.20
2023-05-23T23:59:31.514Z,6.10
